Time;durP1;ratioP1;P1;durP2;ratioP2;P2;SDS_P1;SDS_P2;PMS_P1;PMS_P2;Temp;Humidity;BMP_temperature;BMP_pressure;BME280_temperature;BME280_humidity;BME280_pressure;Samples;Min_cycle;Max_cycle;Signal;HPM_P1;HPM_P2
2023/09/10 00:01:07;;;;;;;5.72;5.32;;;17.90;44.20;;;;;;5071665;28;20040;-64
2023/09/10 00:03:33;;;;;;;4.72;4.43;;;17.90;48.80;;;;;;5072607;28;20136;-64
2023/09/10 00:06:06;;;;;;;4.95;4.55;;;17.90;49.10;;;;;;5073016;28;20516;-64
2023/09/10 00:08:35;;;;;;;4.60;4.30;;;17.90;53.10;;;;;;5071450;28;20040;-64
2023/09/10 00:11:01;;;;;;;4.60;4.30;;;17.90;55.00;;;;;;5073008;28;20048;-64
2023/09/10 00:13:27;;;;;;;4.53;4.22;;;17.80;56.40;;;;;;5072609;28;20079;-64
2023/09/10 00:15:54;;;;;;;5.10;4.70;;;18.00;54.60;;;;;;5072905;28;20074;-64
2023/09/10 00:18:20;;;;;;;4.25;3.95;;;17.80;59.40;;;;;;5072594;28;20039;-64
2023/09/10 00:20:47;;;;;;;4.68;4.28;;;17.80;56.20;;;;;;5072899;28;20048;-64
2023/09/10 00:23:13;;;;;;;4.43;4.13;;;17.70;55.60;;;;;;5072791;28;20481;-64
2023/09/10 00:25:39;;;;;;;4.90;4.50;;;17.80;55.90;;;;;;5074521;28;20484;-64
2023/09/10 00:28:05;;;;;;;5.13;4.72;;;17.60;59.20;;;;;;5076829;28;20033;-64
2023/09/10 00:30:30;;;;;;;5.20;4.78;;;17.70;62.50;;;;;;5076765;28;20480;-64
2023/09/10 00:32:56;;;;;;;4.80;4.40;;;17.70;60.30;;;;;;5075215;28;20045;-64
2023/09/10 00:35:22;;;;;;;4.40;4.10;;;17.70;57.80;;;;;;5076727;28;20082;-64
2023/09/10 00:37:47;;;;;;;4.03;3.72;;;17.70;56.90;;;;;;5076709;28;20045;-64
2023/09/10 00:40:13;;;;;;;4.35;3.95;;;18.00;58.10;;;;;;5076598;28;20132;-64
2023/09/10 00:42:39;;;;;;;3.60;3.30;;;17.60;58.70;;;;;;5076532;28;20080;-64
2023/09/10 00:45:10;;;;;;;4.45;4.15;;;17.70;61.90;;;;;;5076513;28;20087;-64
2023/09/10 00:47:38;;;;;;;4.53;4.22;;;17.60;65.60;;;;;;5076508;28;20114;-64
2023/09/10 00:50:05;;;;;;;4.15;3.85;;;17.60;66.90;;;;;;5076414;28;20437;-64
2023/09/10 00:52:31;;;;;;;4.47;4.07;;;17.60;66.10;;;;;;5075211;28;20032;-64
2023/09/10 00:54:57;;;;;;;4.50;4.13;;;17.60;68.60;;;;;;5076422;28;20041;-64
2023/09/10 00:57:24;;;;;;;4.82;4.43;;;17.60;67.50;;;;;;5076318;28;20484;-64
2023/09/10 00:59:50;;;;;;;4.20;3.90;;;17.50;68.40;;;;;;5076185;28;20063;-64
2023/09/10 01:02:16;;;;;;;4.93;4.57;;;17.50;73.40;;;;;;5076065;28;20032;-64
2023/09/10 01:04:42;;;;;;;4.25;3.95;;;17.80;70.60;;;;;;5076055;28;20080;-64
2023/09/10 01:07:07;;;;;;;4.68;4.35;;;17.50;69.10;;;;;;5075774;28;20511;-65
2023/09/10 01:09:33;;;;;;;4.25;3.95;;;17.50;70.60;;;;;;5074540;28;20033;-64
2023/09/10 01:12:09;;;;;;;4.95;4.55;;;17.50;71.90;;;;;;5076125;28;20396;-64
2023/09/10 01:14:42;;;;;;;3.92;3.63;;;17.40;71.50;;;;;;5075953;28;20052;-64
2023/09/10 01:17:23;;;;;;;4.80;4.40;;;17.40;70.70;;;;;;5075937;28;20569;-65
2023/09/10 01:19:52;;;;;;;4.43;4.13;;;17.40;77.20;;;;;;5075892;28;20052;-64
2023/09/10 01:22:20;;;;;;;4.47;4.18;;;17.30;76.10;;;;;;5075810;28;20051;-64
2023/09/10 01:24:54;;;;;;;5.15;4.72;;;17.30;77.10;;;;;;5075842;28;20510;-64
2023/09/10 01:27:19;;;;;;;6.00;5.50;;;17.30;78.30;;;;;;5075430;28;20045;-64
2023/09/10 01:29:45;;;;;;;5.85;5.45;;;17.30;78.10;;;;;;5075434;28;20043;-64
2023/09/10 01:32:23;;;;;;;5.75;5.25;;;17.20;79.20;;;;;;5075617;28;20044;-64
2023/09/10 01:34:58;;;;;;;5.15;4.75;;;17.30;79.10;;;;;;5074012;28;20040;-64
2023/09/10 01:37:36;;;;;;;5.57;5.18;;;17.30;75.20;;;;;;5073995;28;20078;-65
2023/09/10 01:40:07;;;;;;;5.72;5.32;;;17.50;78.60;;;;;;5075541;28;20029;-64
2023/09/10 01:42:34;;;;;;;5.95;5.53;;;17.20;82.30;;;;;;5075405;28;20113;-64
2023/09/10 01:45:01;;;;;;;6.60;6.10;;;17.20;80.60;;;;;;5073930;28;20043;-64
2023/09/10 01:47:27;;;;;;;6.65;6.15;;;17.10;78.60;;;;;;5075381;28;20087;-64
2023/09/10 01:49:52;;;;;;;6.90;6.30;;;17.30;78.30;;;;;;5075356;28;20433;-64
2023/09/10 01:52:18;;;;;;;6.45;5.95;;;17.20;81.00;;;;;;5074910;28;20045;-64
2023/09/10 01:54:44;;;;;;;5.95;5.55;;;17.10;90.10;;;;;;5074155;28;20083;-64
2023/09/10 01:57:09;;;;;;;5.07;4.68;;;16.90;93.70;;;;;;5074859;28;20399;-64
2023/09/10 01:59:35;;;;;;;5.72;5.03;;;17.10;93.60;;;;;;5075184;28;20086;-64
2023/09/10 02:02:00;;;;;;;5.85;5.45;;;17.10;93.10;;;;;;5073770;28;20040;-64
2023/09/10 02:04:26;;;;;;;6.70;6.13;;;17.00;92.80;;;;;;5074955;28;20055;-64
2023/09/10 02:06:51;;;;;;;6.65;6.15;;;17.00;93.10;;;;;;5075154;28;20498;-64
2023/09/10 02:09:17;;;;;;;7.50;6.68;;;17.20;94.20;;;;;;5075052;28;20032;-64
2023/09/10 02:11:42;;;;;;;6.13;5.70;;;17.50;95.50;;;;;;5073546;28;20075;-68
2023/09/10 02:14:08;;;;;;;6.53;6.03;;;17.50;96.40;;;;;;5074876;28;20037;-68
2023/09/10 02:16:33;;;;;;;6.38;5.88;;;17.10;97.10;;;;;;5090189;28;20047;-68
2023/09/10 02:18:59;;;;;;;6.90;6.30;;;17.70;98.80;;;;;;5074744;28;20507;-68
2023/09/10 02:21:25;;;;;;;5.78;5.32;;;17.40;99.50;;;;;;5073519;28;20063;-65
2023/09/10 02:23:50;;;;;;;6.47;5.97;;;17.20;99.90;;;;;;5073339;28;20041;-65
2023/09/10 02:26:16;;;;;;;6.03;5.53;;;17.30;99.90;;;;;;5074643;28;20028;-64
2023/09/10 02:28:41;;;;;;;6.68;6.18;;;17.30;99.90;;;;;;5074399;28;20525;-64
2023/09/10 02:31:08;;;;;;;5.75;5.25;;;17.10;99.90;;;;;;5074547;28;20472;-64
2023/09/10 02:33:34;;;;;;;6.28;5.80;;;17.40;99.90;;;;;;5074488;28;20067;-64
2023/09/10 02:36:01;;;;;;;5.97;5.57;;;17.20;99.90;;;;;;5074168;28;20040;-64
2023/09/10 02:38:27;;;;;;;5.28;4.88;;;17.40;99.90;;;;;;5074096;28;20041;-64
2023/09/10 02:40:55;;;;;;;5.82;5.43;;;17.80;99.90;;;;;;5072843;28;20037;-64
2023/09/10 02:43:20;;;;;;;5.70;5.30;;;17.00;99.90;;;;;;5073873;28;20072;-64
2023/09/10 02:45:46;;;;;;;5.65;5.20;;;17.00;99.90;;;;;;5073907;28;20078;-64
2023/09/10 02:48:11;;;;;;;6.15;5.75;;;17.50;99.90;;;;;;5073039;28;20032;-64
2023/09/10 02:50:37;;;;;;;5.97;5.57;;;17.20;99.90;;;;;;5072716;28;20048;-64
2023/09/10 02:53:03;;;;;;;6.07;5.68;;;16.80;99.90;;;;;;5074117;28;20041;-64
2023/09/10 02:55:28;;;;;;;6.60;6.10;;;17.10;99.90;;;;;;5072781;28;20051;-64
2023/09/10 02:57:54;;;;;;;6.82;6.32;;;17.50;99.90;;;;;;5074060;28;20036;-64
2023/09/10 03:00:25;;;;;;;7.13;6.63;;;17.20;99.90;;;;;;5073939;28;20036;-64
2023/09/10 03:02:55;;;;;;;6.47;5.97;;;16.80;99.90;;;;;;5073621;28;20397;-64
2023/09/10 03:05:21;;;;;;;7.03;6.53;;;16.90;99.90;;;;;;5072653;28;20051;-64
2023/09/10 03:07:52;;;;;;;7.03;6.53;;;17.10;99.90;;;;;;5073909;28;20480;-64
2023/09/10 03:10:17;;;;;;;7.38;6.88;;;16.90;99.90;;;;;;5073464;28;20036;-64
2023/09/10 03:12:43;;;;;;;6.55;6.05;;;17.50;99.90;;;;;;5073764;28;20033;-64
2023/09/10 03:15:09;;;;;;;7.72;7.13;;;17.00;99.90;;;;;;5073663;28;20048;-64
2023/09/10 03:17:34;;;;;;;8.20;7.50;;;17.00;99.90;;;;;;5073641;28;20477;-64
2023/09/10 03:20:00;;;;;;;7.53;6.97;;;17.00;99.90;;;;;;5073574;28;20115;-64
2023/09/10 03:22:25;;;;;;;8.02;7.35;;;16.80;99.90;;;;;;5073325;28;20384;-64
2023/09/10 03:24:51;;;;;;;8.05;7.45;;;16.70;99.90;;;;;;5073501;28;20036;-64
2023/09/10 03:27:17;;;;;;;7.03;6.50;;;16.90;99.90;;;;;;5073446;28;20444;-64
2023/09/10 03:29:44;;;;;;;7.90;7.32;;;17.00;99.90;;;;;;5073503;28;20051;-64
2023/09/10 03:32:10;;;;;;;7.50;6.90;;;17.70;99.90;;;;;;5073509;28;20036;-67
2023/09/10 03:34:35;;;;;;;7.60;7.00;;;17.20;99.90;;;;;;5073472;28;20369;-68
2023/09/10 03:37:03;;;;;;;7.93;7.32;;;17.30;99.90;;;;;;5073356;28;20044;-68
2023/09/10 03:39:28;;;;;;;6.90;6.40;;;17.10;99.90;;;;;;5073037;28;20122;-68
2023/09/10 03:41:54;;;;;;;7.50;6.90;;;16.70;99.90;;;;;;5073333;28;20127;-68
2023/09/10 03:44:20;;;;;;;7.15;6.65;;;17.10;99.90;;;;;;5073149;28;20039;-68
2023/09/10 03:46:46;;;;;;;7.25;6.65;;;17.40;99.90;;;;;;5073303;28;20442;-68
2023/09/10 03:49:12;;;;;;;7.07;6.57;;;17.40;99.90;;;;;;5073209;28;20036;-68
2023/09/10 03:51:39;;;;;;;7.20;6.70;;;16.90;99.90;;;;;;5073165;28;20028;-68
2023/09/10 03:54:05;;;;;;;7.65;7.05;;;16.70;99.90;;;;;;5073199;28;20395;-68
2023/09/10 03:56:31;;;;;;;7.35;6.65;;;16.90;99.90;;;;;;5073155;28;20045;-68
2023/09/10 03:58:56;;;;;;;7.47;6.88;;;16.60;99.90;;;;;;5072949;28;20036;-68
2023/09/10 04:01:22;;;;;;;7.53;6.95;;;17.10;99.90;;;;;;5073078;28;20545;-68
2023/09/10 04:03:47;;;;;;;7.38;6.80;;;16.90;99.90;;;;;;5072591;28;20119;-68
2023/09/10 04:06:13;;;;;;;7.60;7.00;;;;;;;;;;5073023;28;20047;-68
2023/09/10 04:08:39;;;;;;;7.72;7.13;;;16.60;99.90;;;;;;5073001;28;20400;-68
2023/09/10 04:11:08;;;;;;;7.40;6.80;;;16.90;99.90;;;;;;5073019;28;20041;-68
2023/09/10 04:13:33;;;;;;;7.55;6.95;;;16.90;99.90;;;;;;5072683;28;20052;-68
2023/09/10 04:15:59;;;;;;;8.25;7.65;;;;;;;;;;5073018;28;20033;-68
2023/09/10 04:18:25;;;;;;;8.40;7.80;;;17.00;99.90;;;;;;5072912;28;20044;-68
2023/09/10 04:20:50;;;;;;;9.25;8.55;;;17.10;99.90;;;;;;5072844;28;20045;-68
2023/09/10 04:23:16;;;;;;;7.70;7.10;;;16.70;99.90;;;;;;5072568;28;20067;-64
2023/09/10 04:25:42;;;;;;;6.72;6.22;;;;;;;;;;5072856;28;20029;-64
2023/09/10 04:28:07;;;;;;;6.47;5.97;;;16.70;99.90;;;;;;5072913;28;20047;-64
2023/09/10 04:30:33;;;;;;;7.10;6.60;;;16.60;99.90;;;;;;5072849;28;20037;-64
2023/09/10 04:32:59;;;;;;;7.25;6.68;;;16.60;99.90;;;;;;5072707;28;20120;-64
2023/09/10 04:35:24;;;;;;;6.90;6.40;;;16.60;99.90;;;;;;5072736;28;20476;-64
2023/09/10 04:37:50;;;;;;;7.97;7.38;;;16.50;99.90;;;;;;5054500;28;20395;-64
2023/09/10 04:40:15;;;;;;;6.90;6.40;;;16.60;99.90;;;;;;5072489;28;20090;-64
2023/09/10 04:42:41;;;;;;;7.00;6.50;;;16.90;99.90;;;;;;5072645;28;20471;-64
2023/09/10 04:45:07;;;;;;;7.45;6.85;;;16.50;99.90;;;;;;5072471;28;20040;-68
2023/09/10 04:47:32;;;;;;;8.30;7.70;;;16.50;99.90;;;;;;5071446;28;20041;-68
2023/09/10 04:49:58;;;;;;;7.20;6.70;;;16.50;99.90;;;;;;5072913;28;20044;-68
2023/09/10 04:52:24;;;;;;;7.22;6.72;;;16.40;99.90;;;;;;5072587;28;20498;-68
2023/09/10 04:54:50;;;;;;;7.15;6.65;;;16.40;99.90;;;;;;5072560;28;20040;-68
2023/09/10 04:57:15;;;;;;;7.50;6.93;;;16.40;99.90;;;;;;5072454;28;20041;-68
2023/09/10 04:59:41;;;;;;;7.88;7.28;;;16.40;99.90;;;;;;5072415;28;20063;-68
2023/09/10 05:02:07;;;;;;;8.15;7.55;;;16.40;99.90;;;;;;5070659;28;20113;-68
2023/09/10 05:04:32;;;;;;;7.90;7.30;;;16.40;99.90;;;;;;5072309;28;20051;-68
2023/09/10 05:06:58;;;;;;;7.85;7.25;;;16.30;99.90;;;;;;5072085;28;20055;-68
2023/09/10 05:09:24;;;;;;;6.72;6.22;;;16.40;99.90;;;;;;5072337;28;20037;-68
2023/09/10 05:11:50;;;;;;;6.88;6.38;;;16.40;99.90;;;;;;5074964;28;20036;-68
2023/09/10 05:14:17;;;;;;;7.40;6.82;;;16.40;99.90;;;;;;5075712;28;20047;-68
2023/09/10 05:16:42;;;;;;;8.50;7.88;;;16.40;99.90;;;;;;5075951;28;20036;-68
2023/09/10 05:19:08;;;;;;;6.85;6.35;;;16.30;99.90;;;;;;5075770;28;20123;-68
2023/09/10 05:21:33;;;;;;;7.53;6.93;;;16.40;99.90;;;;;;5075740;28;20047;-68
2023/09/10 05:23:59;;;;;;;7.28;6.78;;;17.60;99.90;;;;;;5075675;28;20461;-68
2023/09/10 05:26:25;;;;;;;6.95;6.45;;;16.40;99.90;;;;;;5075676;28;20044;-68
2023/09/10 05:28:51;;;;;;;7.15;6.65;;;16.50;99.90;;;;;;5075816;28;20040;-68
2023/09/10 05:31:16;;;;;;;7.28;6.78;;;16.40;99.90;;;;;;5075652;28;20040;-68
2023/09/10 05:33:42;;;;;;;5.95;5.55;;;16.40;99.90;;;;;;5075460;28;20044;-64
2023/09/10 05:36:08;;;;;;;5.97;5.57;;;16.40;99.90;;;;;;5075260;28;20032;-64
2023/09/10 05:38:34;;;;;;;6.75;6.25;;;16.50;99.90;;;;;;5075619;28;20041;-64
2023/09/10 05:41:04;;;;;;;6.75;6.25;;;16.50;99.90;;;;;;5075487;28;20162;-64
2023/09/10 05:43:30;;;;;;;7.03;6.50;;;16.50;99.90;;;;;;5075118;28;20094;-64
2023/09/10 05:45:56;;;;;;;6.80;6.30;;;16.60;99.90;;;;;;5074318;28;20029;-64
2023/09/10 05:48:22;;;;;;;6.55;6.05;;;16.60;99.90;;;;;;5075374;28;20046;-65
2023/09/10 05:50:48;;;;;;;6.20;5.70;;;16.60;99.90;;;;;;5075372;28;20044;-64
2023/09/10 05:53:13;;;;;;;6.55;6.05;;;16.60;99.90;;;;;;5075379;28;20040;-64
2023/09/10 05:55:40;;;;;;;6.72;6.22;;;16.70;99.90;;;;;;5074054;28;20037;-64
2023/09/10 05:58:06;;;;;;;7.30;6.70;;;17.10;99.90;;;;;;5075237;28;20040;-64
2023/09/10 06:00:32;;;;;;;6.97;6.47;;;16.80;99.90;;;;;;5075131;28;20467;-64
2023/09/10 06:02:57;;;;;;;6.93;6.43;;;16.80;99.90;;;;;;5074507;28;20088;-64
2023/09/10 06:05:23;;;;;;;6.80;6.30;;;16.80;99.90;;;;;;5074979;28;20473;-64
2023/09/10 06:07:48;;;;;;;7.55;6.95;;;16.90;99.90;;;;;;5074972;28;20400;-64
2023/09/10 06:10:14;;;;;;;5.50;5.10;;;16.90;99.90;;;;;;5074998;28;20033;-64
2023/09/10 06:12:40;;;;;;;5.00;4.60;;;16.90;99.90;;;;;;5090251;28;20066;-64
2023/09/10 06:15:07;;;;;;;4.97;4.57;;;17.10;99.90;;;;;;5074843;28;20033;-64
2023/09/10 06:17:33;;;;;;;4.57;4.25;;;17.00;99.90;;;;;;5074455;28;20044;-64
2023/09/10 06:19:59;;;;;;;4.30;4.00;;;17.10;99.90;;;;;;5074730;28;20040;-64
2023/09/10 06:22:24;;;;;;;4.40;4.10;;;17.10;99.90;;;;;;5073177;28;20101;-64
2023/09/10 06:24:50;;;;;;;4.40;4.10;;;17.20;99.90;;;;;;5074938;28;20037;-64
2023/09/10 06:27:15;;;;;;;4.90;4.50;;;17.40;99.90;;;;;;5074660;28;20068;-64
2023/09/10 06:29:42;;;;;;;4.28;3.97;;;17.30;99.90;;;;;;5074550;28;20473;-64
2023/09/10 06:32:07;;;;;;;5.60;5.20;;;17.40;99.90;;;;;;5074272;28;20047;-64
2023/09/10 06:34:33;;;;;;;5.13;4.72;;;17.40;99.90;;;;;;5074150;28;20040;-64
2023/09/10 06:36:59;;;;;;;5.68;5.28;;;17.50;99.90;;;;;;5074431;28;20105;-64
2023/09/10 06:39:25;;;;;;;5.70;5.15;;;17.50;99.90;;;;;;5074429;28;20040;-64
2023/09/10 06:41:54;;;;;;;5.03;4.63;;;17.70;99.90;;;;;;5074413;28;20090;-64
2023/09/10 06:44:19;;;;;;;5.47;5.07;;;17.80;99.90;;;;;;5074253;28;20388;-68
2023/09/10 06:46:45;;;;;;;5.57;5.18;;;17.90;99.90;;;;;;5073935;28;20037;-68
2023/09/10 06:49:10;;;;;;;4.93;4.53;;;18.30;99.90;;;;;;5074141;28;20040;-71
2023/09/10 06:51:36;;;;;;;5.50;5.10;;;18.00;99.90;;;;;;5074120;28;20036;-68
2023/09/10 06:54:02;;;;;;;5.35;4.95;;;18.30;99.90;;;;;;5073977;28;20512;-68
2023/09/10 06:56:29;;;;;;;4.97;4.57;;;18.40;99.90;;;;;;5073895;28;20044;-68
2023/09/10 06:58:55;;;;;;;4.00;3.70;;;18.60;99.90;;;;;;5074114;28;20045;-69
2023/09/10 07:01:21;;;;;;;5.25;4.85;;;18.60;99.90;;;;;;5072420;28;20090;-68
2023/09/10 07:03:57;;;;;;;5.00;4.60;;;18.70;99.90;;;;;;5073672;28;20416;-64
2023/09/10 07:06:23;;;;;;;4.70;4.30;;;18.80;99.90;;;;;;5073821;28;20064;-64
2023/09/10 07:08:49;;;;;;;4.95;4.57;;;18.90;99.90;;;;;;5073766;28;20036;-64
2023/09/10 07:11:14;;;;;;;4.32;3.92;;;19.10;99.90;;;;;;5073515;28;20528;-64
2023/09/10 07:13:40;;;;;;;4.78;4.38;;;19.30;99.90;;;;;;5073732;28;20037;-72
2023/09/10 07:16:06;;;;;;;4.25;3.95;;;19.20;99.90;;;;;;5073724;28;20068;-67
2023/09/10 07:18:33;;;;;;;4.35;4.05;;;19.50;99.90;;;;;;5073342;28;20037;-65
2023/09/10 07:21:00;;;;;;;3.97;3.67;;;19.60;99.90;;;;;;5073558;28;20048;-65
2023/09/10 07:23:26;;;;;;;3.90;3.60;;;19.70;99.90;;;;;;5073190;28;20044;-68
2023/09/10 07:25:51;;;;;;;4.70;4.32;;;19.80;99.90;;;;;;5072216;28;20072;-69
2023/09/10 07:28:17;;;;;;;4.28;3.97;;;19.90;99.90;;;;;;5073233;28;20087;-68
2023/09/10 07:30:42;;;;;;;4.05;3.75;;;19.90;99.90;;;;;;5071929;28;20480;-68
2023/09/10 07:33:08;;;;;;;3.90;3.60;;;20.10;99.90;;;;;;5072940;28;20056;-68
2023/09/10 07:35:33;;;;;;;4.05;3.75;;;20.50;99.90;;;;;;5072183;28;20105;-69
2023/09/10 07:37:59;;;;;;;3.97;3.67;;;20.10;99.90;;;;;;5071834;28;20036;-69
2023/09/10 07:40:25;;;;;;;4.28;3.95;;;20.60;99.90;;;;;;5073369;28;20170;-68
2023/09/10 07:42:50;;;;;;;4.20;3.90;;;20.50;99.90;;;;;;5088561;28;20131;-69
2023/09/10 07:45:16;;;;;;;4.30;4.00;;;20.70;99.90;;;;;;5073290;28;20480;-69
2023/09/10 07:47:42;;;;;;;3.95;3.65;;;20.70;99.90;;;;;;5072984;28;20032;-69
2023/09/10 07:50:08;;;;;;;3.55;3.25;;;21.20;99.90;;;;;;5073219;28;20495;-68
2023/09/10 07:52:34;;;;;;;3.58;3.28;;;20.90;99.90;;;;;;5071694;28;20047;-68
2023/09/10 07:54:59;;;;;;;3.38;3.17;;;21.00;99.90;;;;;;5071741;28;20044;-68
2023/09/10 07:57:25;;;;;;;3.97;3.63;;;21.10;99.90;;;;;;5072123;28;20468;-68
2023/09/10 07:59:51;;;;;;;3.80;3.50;;;21.20;99.90;;;;;;5072842;28;20044;-69
2023/09/10 08:02:17;;;;;;;3.63;3.33;;;21.30;99.90;;;;;;5071446;28;20043;-69
2023/09/10 08:04:43;;;;;;;2.78;2.58;;;21.30;99.90;;;;;;5072939;28;20037;-69
2023/09/10 08:07:10;;;;;;;3.38;3.17;;;21.40;99.90;;;;;;5071725;28;20094;-69
2023/09/10 08:09:39;;;;;;;3.55;3.35;;;21.50;99.90;;;;;;5073092;28;20075;-68
2023/09/10 08:12:05;;;;;;;3.65;3.35;;;21.80;99.90;;;;;;5072709;28;20098;-69
2023/09/10 08:14:31;;;;;;;3.85;3.55;;;21.80;99.90;;;;;;5071390;28;20045;-69
2023/09/10 08:16:56;;;;;;;3.65;3.35;;;21.90;99.90;;;;;;5072527;28;20047;-69
2023/09/10 08:19:22;;;;;;;4.03;3.72;;;22.00;99.90;;;;;;5071211;28;20102;-68
2023/09/10 08:21:48;;;;;;;3.67;3.33;;;22.00;99.90;;;;;;5071218;28;20040;-73
2023/09/10 08:24:14;;;;;;;3.13;2.92;;;21.90;99.60;;;;;;5071407;28;20079;-71
2023/09/10 08:26:39;;;;;;;4.05;3.75;;;22.40;99.20;;;;;;5071177;28;20044;-72
2023/09/10 08:29:05;;;;;;;3.75;3.45;;;22.20;97.60;;;;;;5072695;28;20036;-71
2023/09/10 08:31:32;;;;;;;3.05;2.85;;;22.30;97.20;;;;;;5072415;28;20048;-72
2023/09/10 08:33:57;;;;;;;3.33;3.08;;;22.20;96.60;;;;;;5071182;28;20106;-72
2023/09/10 08:36:23;;;;;;;2.85;2.65;;;22.40;96.60;;;;;;5072582;28;20037;-67
2023/09/10 08:38:49;;;;;;;2.95;2.75;;;22.50;96.60;;;;;;5072226;28;20446;-68
2023/09/10 08:41:59;;;;;;;2.80;2.60;;;22.70;94.30;;;;;;5072451;28;20128;-67
2023/09/10 08:44:25;;;;;;;3.05;2.85;;;22.80;90.30;;;;;;5049987;28;20122;-64
2023/09/10 08:46:53;;;;;;;2.80;2.60;;;22.90;93.20;;;;;;5053303;28;20033;-65
2023/09/10 08:49:21;;;;;;;2.67;2.47;;;23.10;91.40;;;;;;5065711;28;20053;-64
2023/09/10 08:51:47;;;;;;;2.95;2.75;;;23.10;88.90;;;;;;5076373;28;20127;-63
2023/09/10 08:54:14;;;;;;;3.00;2.80;;;23.10;89.10;;;;;;5075033;28;20059;-63
2023/09/10 08:56:40;;;;;;;3.97;3.30;;;23.20;89.00;;;;;;5075985;28;20071;-63
2023/09/10 08:59:07;;;;;;;3.05;2.75;;;23.20;85.90;;;;;;5076310;28;20068;-63
2023/09/10 09:01:33;;;;;;;3.80;2.35;;;23.40;84.50;;;;;;5076179;28;20085;-65
2023/09/10 09:04:00;;;;;;;2.88;2.67;;;23.40;79.40;;;;;;5075712;28;20061;-65
2023/09/10 09:06:29;;;;;;;3.03;2.78;;;23.30;76.50;;;;;;5076071;28;20373;-65
2023/09/10 09:08:57;;;;;;;2.80;2.60;;;23.50;73.90;;;;;;5075693;28;20048;-64
2023/09/10 09:11:23;;;;;;;2.70;2.50;;;23.50;73.90;;;;;;5075738;28;20043;-65
2023/09/10 09:13:52;;;;;;;2.63;2.42;;;23.60;73.20;;;;;;5074911;28;20051;-65
2023/09/10 09:16:18;;;;;;;2.70;2.50;;;23.60;71.60;;;;;;5075888;28;20036;-65
2023/09/10 09:18:46;;;;;;;2.63;2.33;;;23.60;70.20;;;;;;5075489;28;20076;-65
2023/09/10 09:21:17;;;;;;;2.90;2.70;;;23.60;65.30;;;;;;5075487;28;20089;-65
2023/09/10 09:24:01;;;;;;;3.42;2.30;;;23.40;51.30;;;;;;5075784;28;20520;-64
2023/09/10 09:26:27;;;;;;;2.20;2.10;;;23.70;49.20;;;;;;5075788;28;20036;-64
2023/09/10 09:28:57;;;;;;;2.45;2.25;;;24.00;54.80;;;;;;5075778;28;20178;-64
2023/09/10 09:31:24;;;;;;;3.00;2.80;;;23.70;54.20;;;;;;5074428;28;20125;-64
2023/09/10 09:33:50;;;;;;;2.50;2.28;;;23.80;55.10;;;;;;5075311;28;20484;-65
2023/09/10 09:36:16;;;;;;;2.33;2.13;;;23.90;48.90;;;;;;5075299;28;20041;-64
2023/09/10 09:38:46;;;;;;;2.30;2.20;;;;;;;;;;5075525;28;20047;-63
2023/09/10 09:41:14;;;;;;;2.55;2.38;;;23.90;42.70;;;;;;5075546;28;20446;-63
2023/09/10 09:43:39;;;;;;;2.10;2.00;;;23.90;1.00;;;;;;5075420;28;20044;-64
2023/09/10 09:46:05;;;;;;;2.00;1.90;;;24.00;95.50;;;;;;5075327;28;20369;-63
2023/09/10 09:48:33;;;;;;;2.28;2.08;;;24.40;99.90;;;;;;5075255;28;20377;-64
2023/09/10 09:50:58;;;;;;;3.20;2.20;;;24.20;1.00;;;;;;5075290;28;20041;-63
2023/09/10 09:53:30;;;;;;;1.98;1.88;;;24.40;99.90;;;;;;5075256;28;20037;-63
2023/09/10 09:55:59;;;;;;;2.38;2.17;;;24.30;99.90;;;;;;5074846;28;20067;-63
2023/09/10 09:58:24;;;;;;;2.60;2.40;;;24.30;99.90;;;;;;5073561;28;20044;-63
2023/09/10 10:00:50;;;;;;;2.50;2.30;;;24.40;99.90;;;;;;5074746;28;20051;-64
2023/09/10 10:03:20;;;;;;;2.65;2.45;;;24.30;99.90;;;;;;5073623;28;20062;-64
2023/09/10 10:05:53;;;;;;;4.72;2.70;;;24.50;99.90;;;;;;5075043;28;20032;-63
2023/09/10 10:08:23;;;;;;;2.20;2.00;;;25.20;95.20;;;;;;5074944;28;20044;-64
2023/09/10 10:10:49;;;;;;;;;;;24.70;99.90;;;;;;5075295;28;20119;-63
2023/09/10 10:13:20;;;;;;;2.70;1.95;;;24.80;99.90;;;;;;5074980;28;19979;-67
2023/09/10 10:15:54;;;;;;;2.63;2.42;;;24.90;1.00;;;;;;5074749;28;20064;-65
2023/09/10 10:18:21;;;;;;;1.90;1.80;;;25.00;1.00;;;;;;5074738;28;20411;-65
2023/09/10 10:20:49;;;;;;;2.00;1.90;;;25.10;97.60;;;;;;5074749;28;20474;-65
2023/09/10 10:23:16;;;;;;;2.45;2.25;;;25.20;1.00;;;;;;5074655;28;20258;-65
2023/09/10 10:25:43;;;;;;;2.38;2.17;;;25.20;99.90;;;;;;5074487;28;20043;-65
2023/09/10 10:28:09;;;;;;;2.58;2.38;;;25.40;99.90;;;;;;5074065;28;20036;-65
2023/09/10 10:30:51;;;;;;;2.45;2.22;;;25.50;99.60;;;;;;5074269;28;20044;-64
2023/09/10 10:33:20;;;;;;;2.47;2.28;;;25.50;99.70;;;;;;5072739;28;20040;-65
2023/09/10 10:36:07;;;;;;;2.40;2.20;;;25.50;89.50;;;;;;5074318;28;20044;-67
2023/09/10 10:38:42;;;;;;;2.38;2.17;;;25.60;85.10;;;;;;5072953;28;20047;-63
2023/09/10 10:41:13;;;;;;;2.17;1.95;;;25.60;99.90;;;;;;5055953;28;20048;-64
2023/09/10 10:44:00;;;;;;;2.58;2.38;;;26.00;73.90;;;;;;5073932;28;20055;-64
2023/09/10 10:46:27;;;;;;;2.88;2.15;;;25.70;1.00;;;;;;5072721;28;20037;-64
2023/09/10 10:48:54;;;;;;;2.00;1.90;;;25.70;1.00;;;;;;5074026;28;20040;-64
2023/09/10 10:51:19;;;;;;;2.13;1.98;;;25.90;1.00;;;;;;5074112;28;20036;-64
2023/09/10 10:53:46;;;;;;;2.08;1.98;;;26.20;1.00;;;;;;5073822;28;20511;-64
2023/09/10 10:56:13;;;;;;;2.05;1.92;;;25.90;1.00;;;;;;5074072;28;20480;-66
2023/09/10 10:58:41;;;;;;;2.05;1.95;;;25.90;1.00;;;;;;5073983;28;20530;-66
2023/09/10 11:01:09;;;;;;;2.50;2.30;;;25.90;1.00;;;;;;5073980;28;20116;-66
2023/09/10 11:03:35;;;;;;;1.95;1.85;;;25.80;1.00;;;;;;5073561;28;20060;-67
2023/09/10 11:06:05;;;;;;;2.20;2.00;;;25.90;1.00;;;;;;5073848;28;20044;-66
2023/09/10 11:08:42;;;;;;;2.15;1.95;;;25.90;99.90;;;;;;5073098;28;20408;-66
2023/09/10 11:11:44;;;;;;;2.58;2.15;;;25.90;99.90;;;;;;5073800;28;20456;-66
2023/09/10 11:14:10;;;;;;;2.05;1.88;;;25.90;99.90;;;;;;5089343;28;20052;-66
2023/09/10 11:16:38;;;;;;;2.05;1.73;;;25.90;99.90;;;;;;5073728;28;20072;-66
2023/09/10 11:19:04;;;;;;;1.95;1.85;;;25.90;99.90;;;;;;5073668;28;20044;-66
2023/09/10 11:21:54;;;;;;;2.03;1.77;;;25.90;99.90;;;;;;5073597;28;20040;-66
2023/09/10 11:24:20;;;;;;;1.85;1.75;;;25.90;99.90;;;;;;5073541;28;20388;-67
2023/09/10 11:26:45;;;;;;;2.28;1.92;;;25.90;99.90;;;;;;5073233;28;20045;-65
2023/09/10 11:29:16;;;;;;;2.10;1.98;;;26.00;99.90;;;;;;5073130;28;20040;-63
2023/09/10 11:31:42;;;;;;;2.30;1.92;;;26.00;99.90;;;;;;5073380;28;20037;-68
2023/09/10 11:34:31;;;;;;;2.00;1.80;;;26.10;99.90;;;;;;5073582;28;20549;-64
2023/09/10 11:37:04;;;;;;;1.83;1.73;;;26.20;99.90;;;;;;5073423;28;20044;-65
2023/09/10 11:39:35;;;;;;;1.70;1.60;;;26.20;99.90;;;;;;5073253;28;20047;-69
2023/09/10 11:42:03;;;;;;;2.42;2.22;;;26.20;99.90;;;;;;5073300;28;20417;-65
2023/09/10 11:44:28;;;;;;;2.78;1.85;;;26.20;99.90;;;;;;5071839;28;20545;-68
2023/09/10 11:46:54;;;;;;;1.88;1.73;;;26.30;99.90;;;;;;5073018;28;20033;-67
2023/09/10 11:49:22;;;;;;;1.95;1.80;;;26.30;99.90;;;;;;5071496;28;20127;-67
2023/09/10 11:51:53;;;;;;;1.88;1.75;;;26.30;99.90;;;;;;5073159;28;20040;-67
2023/09/10 11:54:20;;;;;;;2.22;2.03;;;26.30;99.90;;;;;;5073016;28;20400;-67
2023/09/10 11:56:48;;;;;;;2.80;2.22;;;26.30;99.90;;;;;;5072860;28;20115;-67
2023/09/10 11:59:17;;;;;;;2.95;1.63;;;26.40;99.90;;;;;;5073011;28;20158;-67
2023/09/10 12:01:43;;;;;;;2.08;1.90;;;26.50;99.90;;;;;;5073019;28;20036;-67
2023/09/10 12:04:09;;;;;;;3.38;2.05;;;26.50;99.90;;;;;;5072509;28;20060;-66
2023/09/10 12:06:34;;;;;;;4.60;2.03;;;26.50;99.90;;;;;;5071740;28;20455;-66
2023/09/10 12:09:00;;;;;;;3.28;2.00;;;26.50;99.90;;;;;;5072909;28;20032;-67
2023/09/10 12:11:28;;;;;;;2.20;2.03;;;26.60;99.90;;;;;;5072864;28;20037;-66
2023/09/10 12:13:54;;;;;;;3.30;1.90;;;26.60;99.90;;;;;;5072961;28;20330;-66
2023/09/10 12:16:20;;;;;;;2.15;1.98;;;26.60;99.90;;;;;;5072872;28;20408;-66
2023/09/10 12:18:46;;;;;;;2.92;1.77;;;26.60;99.90;;;;;;5072635;28;20041;-66
2023/09/10 12:21:15;;;;;;;1.90;1.70;;;26.80;99.90;;;;;;5076492;28;20051;-66
2023/09/10 12:23:41;;;;;;;2.10;1.90;;;26.80;99.90;;;;;;5076954;28;20045;-70
2023/09/10 12:26:09;;;;;;;2.08;1.90;;;26.80;99.90;;;;;;5076947;28;20039;-66
2023/09/10 12:28:35;;;;;;;2.15;1.95;;;26.80;99.90;;;;;;5076817;28;20067;-69
2023/09/10 12:31:02;;;;;;;2.30;2.10;;;26.90;99.90;;;;;;5076792;28;20480;-66
2023/09/10 12:33:28;;;;;;;2.78;1.80;;;26.90;99.90;;;;;;5076281;28;20044;-66
2023/09/10 12:35:55;;;;;;;3.50;2.15;;;26.90;99.90;;;;;;5076787;28;20468;-66
2023/09/10 12:38:21;;;;;;;1.98;1.73;;;27.00;99.90;;;;;;5076635;28;20123;-66
2023/09/10 12:40:48;;;;;;;1.70;1.60;;;27.00;99.90;;;;;;5076306;28;20190;-64
2023/09/10 12:43:18;;;;;;;2.95;1.88;;;26.90;99.90;;;;;;5076541;28;20068;-66
2023/09/10 12:45:44;;;;;;;1.95;1.85;;;27.00;99.90;;;;;;5074891;28;20048;-67
2023/09/10 12:48:11;;;;;;;1.83;1.60;;;27.10;99.90;;;;;;5076406;28;20502;-66